sensor_id;sensor_type;location;lat;lon;timestamp;P1;durP1;ratioP1;P2;durP2;ratioP2
75639;SDS011;64233;51.486;6.332;2022-10-22T00:01:31;24.80;;;14.77;;
75639;SDS011;64233;51.486;6.332;2022-10-22T00:03:57;23.75;;;13.23;;
75639;SDS011;64233;51.486;6.332;2022-10-22T00:06:23;16.42;;;12.43;;
75639;SDS011;64233;51.486;6.332;2022-10-22T00:08:49;10.00;;;6.63;;
75639;SDS011;64233;51.486;6.332;2022-10-22T00:11:15;6.85;;;3.85;;
75639;SDS011;64233;51.486;6.332;2022-10-22T00:13:42;4.10;;;2.92;;
75639;SDS011;64233;51.486;6.332;2022-10-22T00:16:08;6.15;;;3.03;;
75639;SDS011;64233;51.486;6.332;2022-10-22T00:18:35;6.10;;;2.50;;
75639;SDS011;64233;51.486;6.332;2022-10-22T00:21:01;5.15;;;2.78;;
75639;SDS011;64233;51.486;6.332;2022-10-22T00:23:26;5.90;;;2.55;;
75639;SDS011;64233;51.486;6.332;2022-10-22T00:25:52;6.38;;;2.45;;
75639;SDS011;64233;51.486;6.332;2022-10-22T00:28:17;7.47;;;3.63;;
75639;SDS011;64233;51.486;6.332;2022-10-22T00:30:43;16.55;;;11.15;;
75639;SDS011;64233;51.486;6.332;2022-10-22T00:33:08;27.95;;;19.23;;
75639;SDS011;64233;51.486;6.332;2022-10-22T00:35:34;59.72;;;40.38;;
75639;SDS011;64233;51.486;6.332;2022-10-22T00:37:59;144.55;;;91.15;;
75639;SDS011;64233;51.486;6.332;2022-10-22T00:40:25;154.93;;;97.32;;
75639;SDS011;64233;51.486;6.332;2022-10-22T00:42:50;153.23;;;95.88;;
75639;SDS011;64233;51.486;6.332;2022-10-22T00:45:18;142.05;;;89.50;;
75639;SDS011;64233;51.486;6.332;2022-10-22T00:47:51;94.55;;;60.83;;
75639;SDS011;64233;51.486;6.332;2022-10-22T00:50:22;47.50;;;30.00;;
75639;SDS011;64233;51.486;6.332;2022-10-22T00:52:51;40.20;;;24.30;;
75639;SDS011;64233;51.486;6.332;2022-10-22T00:55:19;30.23;;;19.77;;
75639;SDS011;64233;51.486;6.332;2022-10-22T00:57:45;34.28;;;18.83;;
75639;SDS011;64233;51.486;6.332;2022-10-22T01:00:12;64.85;;;40.95;;
75639;SDS011;64233;51.486;6.332;2022-10-22T01:02:37;88.60;;;52.42;;
75639;SDS011;64233;51.486;6.332;2022-10-22T01:05:03;112.90;;;68.45;;
75639;SDS011;64233;51.486;6.332;2022-10-22T01:07:29;79.88;;;46.42;;
75639;SDS011;64233;51.486;6.332;2022-10-22T01:15:36;55.85;;;35.95;;
75639;SDS011;64233;51.486;6.332;2022-10-22T01:18:29;22.73;;;15.23;;
75639;SDS011;64233;51.486;6.332;2022-10-22T01:31:33;55.72;;;35.83;;
75639;SDS011;64233;51.486;6.332;2022-10-22T01:34:05;31.52;;;19.30;;
75639;SDS011;64233;51.486;6.332;2022-10-22T01:36:32;17.30;;;11.27;;
75639;SDS011;64233;51.486;6.332;2022-10-22T01:39:01;11.52;;;5.97;;
75639;SDS011;64233;51.486;6.332;2022-10-22T01:41:28;9.27;;;6.30;;
75639;SDS011;64233;51.486;6.332;2022-10-22T01:43:54;8.38;;;4.97;;
75639;SDS011;64233;51.486;6.332;2022-10-22T01:46:20;8.38;;;5.18;;
75639;SDS011;64233;51.486;6.332;2022-10-22T01:54:28;6.50;;;3.72;;
75639;SDS011;64233;51.486;6.332;2022-10-22T02:07:38;5.18;;;3.70;;
75639;SDS011;64233;51.486;6.332;2022-10-22T02:10:07;6.40;;;4.80;;
75639;SDS011;64233;51.486;6.332;2022-10-22T02:12:35;9.00;;;4.68;;
75639;SDS011;64233;51.486;6.332;2022-10-22T02:15:03;7.55;;;4.75;;
75639;SDS011;64233;51.486;6.332;2022-10-22T02:17:30;12.25;;;4.90;;
75639;SDS011;64233;51.486;6.332;2022-10-22T02:20:07;5.20;;;3.47;;
75639;SDS011;64233;51.486;6.332;2022-10-22T02:22:37;5.75;;;3.97;;
75639;SDS011;64233;51.486;6.332;2022-10-22T02:25:04;8.40;;;4.35;;
75639;SDS011;64233;51.486;6.332;2022-10-22T02:27:40;5.95;;;4.07;;
75639;SDS011;64233;51.486;6.332;2022-10-22T02:30:14;5.30;;;4.20;;
75639;SDS011;64233;51.486;6.332;2022-10-22T02:35:16;7.85;;;4.10;;
75639;SDS011;64233;51.486;6.332;2022-10-22T02:37:45;6.93;;;3.60;;
75639;SDS011;64233;51.486;6.332;2022-10-22T02:40:12;9.60;;;4.55;;
75639;SDS011;64233;51.486;6.332;2022-10-22T02:42:38;7.57;;;4.53;;
75639;SDS011;64233;51.486;6.332;2022-10-22T02:45:06;7.07;;;4.00;;
75639;SDS011;64233;51.486;6.332;2022-10-22T02:47:32;8.20;;;4.35;;
75639;SDS011;64233;51.486;6.332;2022-10-22T02:49:58;6.53;;;4.88;;
75639;SDS011;64233;51.486;6.332;2022-10-22T02:52:24;10.60;;;4.88;;
75639;SDS011;64233;51.486;6.332;2022-10-22T02:54:49;7.10;;;4.78;;
75639;SDS011;64233;51.486;6.332;2022-10-22T02:57:15;9.05;;;4.45;;
75639;SDS011;64233;51.486;6.332;2022-10-22T02:59:41;8.02;;;4.88;;
75639;SDS011;64233;51.486;6.332;2022-10-22T03:02:07;6.57;;;5.07;;
75639;SDS011;64233;51.486;6.332;2022-10-22T03:04:33;9.40;;;4.88;;
75639;SDS011;64233;51.486;6.332;2022-10-22T03:06:59;8.90;;;4.47;;
75639;SDS011;64233;51.486;6.332;2022-10-22T03:09:25;7.85;;;4.68;;
75639;SDS011;64233;51.486;6.332;2022-10-22T03:11:51;10.07;;;4.43;;
75639;SDS011;64233;51.486;6.332;2022-10-22T03:14:16;8.32;;;4.35;;
75639;SDS011;64233;51.486;6.332;2022-10-22T03:16:42;8.80;;;4.82;;
75639;SDS011;64233;51.486;6.332;2022-10-22T03:19:08;6.72;;;4.68;;
75639;SDS011;64233;51.486;6.332;2022-10-22T03:21:50;11.05;;;4.68;;
75639;SDS011;64233;51.486;6.332;2022-10-22T03:24:21;10.77;;;7.00;;
75639;SDS011;64233;51.486;6.332;2022-10-22T03:27:07;6.80;;;4.38;;
75639;SDS011;64233;51.486;6.332;2022-10-22T03:29:35;8.05;;;4.60;;
75639;SDS011;64233;51.486;6.332;2022-10-22T03:32:03;8.18;;;4.40;;
75639;SDS011;64233;51.486;6.332;2022-10-22T03:34:29;10.98;;;4.90;;
75639;SDS011;64233;51.486;6.332;2022-10-22T03:36:55;6.55;;;4.40;;
75639;SDS011;64233;51.486;6.332;2022-10-22T03:39:22;7.55;;;4.15;;
75639;SDS011;64233;51.486;6.332;2022-10-22T03:41:48;11.68;;;5.70;;
75639;SDS011;64233;51.486;6.332;2022-10-22T03:44:15;7.03;;;4.60;;
75639;SDS011;64233;51.486;6.332;2022-10-22T03:46:42;10.23;;;4.63;;
75639;SDS011;64233;51.486;6.332;2022-10-22T03:49:07;8.65;;;5.00;;
75639;SDS011;64233;51.486;6.332;2022-10-22T03:51:33;9.23;;;4.13;;
75639;SDS011;64233;51.486;6.332;2022-10-22T03:53:59;10.35;;;3.97;;
75639;SDS011;64233;51.486;6.332;2022-10-22T03:56:25;6.78;;;3.92;;
75639;SDS011;64233;51.486;6.332;2022-10-22T03:58:50;13.13;;;4.60;;
75639;SDS011;64233;51.486;6.332;2022-10-22T04:01:19;7.82;;;4.63;;
75639;SDS011;64233;51.486;6.332;2022-10-22T04:03:45;6.43;;;4.38;;
75639;SDS011;64233;51.486;6.332;2022-10-22T04:06:11;5.82;;;4.15;;
75639;SDS011;64233;51.486;6.332;2022-10-22T04:08:37;6.63;;;4.28;;
75639;SDS011;64233;51.486;6.332;2022-10-22T04:11:04;6.65;;;4.25;;
75639;SDS011;64233;51.486;6.332;2022-10-22T04:13:29;8.45;;;3.65;;
75639;SDS011;64233;51.486;6.332;2022-10-22T04:15:55;7.63;;;4.28;;
75639;SDS011;64233;51.486;6.332;2022-10-22T04:18:30;15.98;;;5.18;;
75639;SDS011;64233;51.486;6.332;2022-10-22T04:20:55;9.63;;;4.28;;
75639;SDS011;64233;51.486;6.332;2022-10-22T04:23:20;7.63;;;4.22;;
75639;SDS011;64233;51.486;6.332;2022-10-22T04:25:46;6.72;;;4.53;;
75639;SDS011;64233;51.486;6.332;2022-10-22T04:28:11;11.27;;;4.50;;
75639;SDS011;64233;51.486;6.332;2022-10-22T04:30:37;11.02;;;4.57;;
75639;SDS011;64233;51.486;6.332;2022-10-22T04:33:02;8.98;;;4.97;;
75639;SDS011;64233;51.486;6.332;2022-10-22T04:35:28;5.68;;;4.43;;
75639;SDS011;64233;51.486;6.332;2022-10-22T04:37:54;6.30;;;4.40;;
75639;SDS011;64233;51.486;6.332;2022-10-22T04:40:20;9.00;;;4.85;;
75639;SDS011;64233;51.486;6.332;2022-10-22T04:42:45;5.97;;;4.53;;
75639;SDS011;64233;51.486;6.332;2022-10-22T04:45:11;8.65;;;4.90;;
75639;SDS011;64233;51.486;6.332;2022-10-22T04:47:36;8.20;;;4.63;;
75639;SDS011;64233;51.486;6.332;2022-10-22T04:50:02;7.95;;;4.55;;
75639;SDS011;64233;51.486;6.332;2022-10-22T04:52:28;6.22;;;3.78;;
75639;SDS011;64233;51.486;6.332;2022-10-22T04:54:54;7.88;;;4.45;;
75639;SDS011;64233;51.486;6.332;2022-10-22T04:57:20;7.60;;;4.10;;
75639;SDS011;64233;51.486;6.332;2022-10-22T04:59:45;5.10;;;4.07;;
75639;SDS011;64233;51.486;6.332;2022-10-22T05:02:10;7.78;;;4.05;;
75639;SDS011;64233;51.486;6.332;2022-10-22T05:04:36;6.95;;;3.63;;
75639;SDS011;64233;51.486;6.332;2022-10-22T05:07:01;6.50;;;3.47;;
75639;SDS011;64233;51.486;6.332;2022-10-22T05:09:26;7.43;;;3.17;;
75639;SDS011;64233;51.486;6.332;2022-10-22T05:11:52;11.20;;;4.70;;
75639;SDS011;64233;51.486;6.332;2022-10-22T05:14:20;4.78;;;3.38;;
75639;SDS011;64233;51.486;6.332;2022-10-22T05:16:46;6.10;;;3.38;;
75639;SDS011;64233;51.486;6.332;2022-10-22T05:19:17;5.90;;;3.53;;
75639;SDS011;64233;51.486;6.332;2022-10-22T05:21:53;7.82;;;3.70;;
75639;SDS011;64233;51.486;6.332;2022-10-22T05:24:20;7.70;;;3.80;;
75639;SDS011;64233;51.486;6.332;2022-10-22T05:26:49;5.15;;;3.35;;
75639;SDS011;64233;51.486;6.332;2022-10-22T05:29:16;15.65;;;3.90;;
75639;SDS011;64233;51.486;6.332;2022-10-22T05:31:41;6.65;;;3.53;;
75639;SDS011;64233;51.486;6.332;2022-10-22T05:34:07;10.00;;;3.47;;
75639;SDS011;64233;51.486;6.332;2022-10-22T05:36:32;8.00;;;3.95;;
75639;SDS011;64233;51.486;6.332;2022-10-22T05:38:58;5.80;;;3.25;;
75639;SDS011;64233;51.486;6.332;2022-10-22T05:41:24;8.15;;;3.17;;
75639;SDS011;64233;51.486;6.332;2022-10-22T05:43:50;9.75;;;3.83;;
75639;SDS011;64233;51.486;6.332;2022-10-22T05:46:19;13.05;;;3.47;;
75639;SDS011;64233;51.486;6.332;2022-10-22T05:48:49;8.27;;;3.58;;
75639;SDS011;64233;51.486;6.332;2022-10-22T05:51:20;9.35;;;3.58;;
75639;SDS011;64233;51.486;6.332;2022-10-22T05:53:49;6.88;;;3.22;;
75639;SDS011;64233;51.486;6.332;2022-10-22T05:56:17;9.32;;;3.25;;
75639;SDS011;64233;51.486;6.332;2022-10-22T05:58:42;7.13;;;3.13;;
75639;SDS011;64233;51.486;6.332;2022-10-22T06:03:41;8.55;;;3.15;;
75639;SDS011;64233;51.486;6.332;2022-10-22T06:06:14;7.45;;;2.90;;
75639;SDS011;64233;51.486;6.332;2022-10-22T06:08:46;4.80;;;3.13;;
75639;SDS011;64233;51.486;6.332;2022-10-22T06:11:14;4.80;;;3.22;;
75639;SDS011;64233;51.486;6.332;2022-10-22T06:13:42;6.50;;;2.75;;
75639;SDS011;64233;51.486;6.332;2022-10-22T06:16:08;3.45;;;2.88;;
75639;SDS011;64233;51.486;6.332;2022-10-22T06:18:34;8.00;;;3.25;;
75639;SDS011;64233;51.486;6.332;2022-10-22T06:21:03;4.82;;;2.55;;
75639;SDS011;64233;51.486;6.332;2022-10-22T06:23:29;10.95;;;2.58;;
75639;SDS011;64233;51.486;6.332;2022-10-22T06:25:56;5.35;;;2.70;;
75639;SDS011;64233;51.486;6.332;2022-10-22T06:28:22;5.63;;;2.30;;
75639;SDS011;64233;51.486;6.332;2022-10-22T06:30:47;4.30;;;2.25;;
75639;SDS011;64233;51.486;6.332;2022-10-22T06:33:12;4.78;;;2.15;;
75639;SDS011;64233;51.486;6.332;2022-10-22T06:35:38;9.30;;;2.88;;
75639;SDS011;64233;51.486;6.332;2022-10-22T06:38:03;5.50;;;3.33;;
75639;SDS011;64233;51.486;6.332;2022-10-22T06:40:30;3.10;;;2.22;;
75639;SDS011;64233;51.486;6.332;2022-10-22T06:42:58;4.78;;;1.77;;
75639;SDS011;64233;51.486;6.332;2022-10-22T06:45:24;4.13;;;1.80;;
75639;SDS011;64233;51.486;6.332;2022-10-22T06:47:49;3.60;;;2.17;;
75639;SDS011;64233;51.486;6.332;2022-10-22T06:50:15;2.63;;;1.50;;
75639;SDS011;64233;51.486;6.332;2022-10-22T06:52:41;8.82;;;1.67;;
75639;SDS011;64233;51.486;6.332;2022-10-22T06:55:06;4.53;;;1.77;;
75639;SDS011;64233;51.486;6.332;2022-10-22T06:57:32;9.95;;;2.17;;
75639;SDS011;64233;51.486;6.332;2022-10-22T06:59:57;6.32;;;2.40;;
75639;SDS011;64233;51.486;6.332;2022-10-22T07:02:22;2.72;;;1.60;;
75639;SDS011;64233;51.486;6.332;2022-10-22T07:04:48;5.53;;;1.83;;
75639;SDS011;64233;51.486;6.332;2022-10-22T07:07:13;5.53;;;2.05;;
75639;SDS011;64233;51.486;6.332;2022-10-22T07:09:39;2.42;;;1.52;;
75639;SDS011;64233;51.486;6.332;2022-10-22T07:12:04;3.83;;;1.80;;
75639;SDS011;64233;51.486;6.332;2022-10-22T07:14:30;4.78;;;1.55;;
75639;SDS011;64233;51.486;6.332;2022-10-22T07:16:56;5.30;;;2.00;;
75639;SDS011;64233;51.486;6.332;2022-10-22T07:19:21;7.68;;;2.35;;
75639;SDS011;64233;51.486;6.332;2022-10-22T07:21:47;8.95;;;1.70;;
75639;SDS011;64233;51.486;6.332;2022-10-22T07:24:12;3.67;;;1.42;;
75639;SDS011;64233;51.486;6.332;2022-10-22T07:26:37;8.40;;;1.85;;
75639;SDS011;64233;51.486;6.332;2022-10-22T07:29:03;5.63;;;2.25;;
75639;SDS011;64233;51.486;6.332;2022-10-22T07:31:29;7.20;;;1.70;;
75639;SDS011;64233;51.486;6.332;2022-10-22T07:33:55;2.65;;;1.38;;
75639;SDS011;64233;51.486;6.332;2022-10-22T07:36:21;8.35;;;2.10;;
75639;SDS011;64233;51.486;6.332;2022-10-22T07:38:47;4.53;;;2.17;;
75639;SDS011;64233;51.486;6.332;2022-10-22T07:41:17;3.00;;;1.52;;
75639;SDS011;64233;51.486;6.332;2022-10-22T07:43:42;10.40;;;2.33;;
75639;SDS011;64233;51.486;6.332;2022-10-22T07:46:08;3.67;;;1.63;;
75639;SDS011;64233;51.486;6.332;2022-10-22T07:48:34;8.00;;;2.33;;
75639;SDS011;64233;51.486;6.332;2022-10-22T07:51:00;5.03;;;1.50;;
75639;SDS011;64233;51.486;6.332;2022-10-22T07:53:26;8.07;;;2.08;;
75639;SDS011;64233;51.486;6.332;2022-10-22T07:55:51;2.20;;;1.25;;
75639;SDS011;64233;51.486;6.332;2022-10-22T07:58:17;6.88;;;1.90;;
75639;SDS011;64233;51.486;6.332;2022-10-22T08:00:44;6.85;;;1.42;;
75639;SDS011;64233;51.486;6.332;2022-10-22T08:03:10;15.98;;;1.90;;
75639;SDS011;64233;51.486;6.332;2022-10-22T08:05:36;5.13;;;1.55;;
75639;SDS011;64233;51.486;6.332;2022-10-22T08:08:03;9.40;;;1.73;;
75639;SDS011;64233;51.486;6.332;2022-10-22T08:10:29;3.85;;;1.23;;
75639;SDS011;64233;51.486;6.332;2022-10-22T08:12:55;2.97;;;1.60;;
75639;SDS011;64233;51.486;6.332;2022-10-22T08:15:21;4.75;;;1.60;;
75639;SDS011;64233;51.486;6.332;2022-10-22T08:17:48;3.40;;;1.63;;
75639;SDS011;64233;51.486;6.332;2022-10-22T08:20:14;9.00;;;1.63;;
75639;SDS011;64233;51.486;6.332;2022-10-22T08:22:40;7.38;;;1.73;;
75639;SDS011;64233;51.486;6.332;2022-10-22T08:25:05;6.47;;;1.75;;
75639;SDS011;64233;51.486;6.332;2022-10-22T08:27:31;6.03;;;1.63;;
75639;SDS011;64233;51.486;6.332;2022-10-22T08:29:56;4.47;;;1.55;;
75639;SDS011;64233;51.486;6.332;2022-10-22T08:32:22;7.22;;;1.60;;
75639;SDS011;64233;51.486;6.332;2022-10-22T08:34:47;3.13;;;1.67;;
75639;SDS011;64233;51.486;6.332;2022-10-22T08:37:12;7.32;;;1.33;;
75639;SDS011;64233;51.486;6.332;2022-10-22T08:39:38;2.97;;;1.70;;
75639;SDS011;64233;51.486;6.332;2022-10-22T08:50:17;4.75;;;1.20;;
75639;SDS011;64233;51.486;6.332;2022-10-22T08:52:48;8.32;;;1.58;;
75639;SDS011;64233;51.486;6.332;2022-10-22T08:55:17;6.82;;;1.65;;
75639;SDS011;64233;51.486;6.332;2022-10-22T09:00:39;8.00;;;1.15;;
75639;SDS011;64233;51.486;6.332;2022-10-22T09:03:16;3.33;;;1.00;;
75639;SDS011;64233;51.486;6.332;2022-10-22T09:08:35;4.80;;;1.80;;
75639;SDS011;64233;51.486;6.332;2022-10-22T09:13:27;4.45;;;1.30;;
75639;SDS011;64233;51.486;6.332;2022-10-22T09:15:54;3.75;;;1.08;;
75639;SDS011;64233;51.486;6.332;2022-10-22T09:21:11;8.85;;;1.40;;
75639;SDS011;64233;51.486;6.332;2022-10-22T09:26:27;2.83;;;1.20;;
75639;SDS011;64233;51.486;6.332;2022-10-22T09:28:52;1.38;;;0.98;;
75639;SDS011;64233;51.486;6.332;2022-10-22T09:31:18;7.75;;;1.73;;
75639;SDS011;64233;51.486;6.332;2022-10-22T09:33:44;2.58;;;1.17;;
75639;SDS011;64233;51.486;6.332;2022-10-22T09:36:15;3.05;;;1.25;;
75639;SDS011;64233;51.486;6.332;2022-10-22T09:38:46;3.08;;;1.05;;
75639;SDS011;64233;51.486;6.332;2022-10-22T09:41:13;5.70;;;1.20;;
75639;SDS011;64233;51.486;6.332;2022-10-22T09:43:39;10.05;;;1.42;;
75639;SDS011;64233;51.486;6.332;2022-10-22T09:46:06;4.18;;;0.90;;
75639;SDS011;64233;51.486;6.332;2022-10-22T09:48:39;3.95;;;0.98;;
75639;SDS011;64233;51.486;6.332;2022-10-22T09:51:20;5.60;;;1.55;;
75639;SDS011;64233;51.486;6.332;2022-10-22T09:53:57;4.65;;;1.10;;
75639;SDS011;64233;51.486;6.332;2022-10-22T09:56:32;4.35;;;1.35;;
75639;SDS011;64233;51.486;6.332;2022-10-22T09:58:59;4.95;;;0.95;;
75639;SDS011;64233;51.486;6.332;2022-10-22T10:01:27;2.95;;;1.30;;
75639;SDS011;64233;51.486;6.332;2022-10-22T10:03:53;7.97;;;2.08;;
75639;SDS011;64233;51.486;6.332;2022-10-22T10:06:29;9.68;;;1.50;;
75639;SDS011;64233;51.486;6.332;2022-10-22T10:08:56;3.97;;;1.35;;
75639;SDS011;64233;51.486;6.332;2022-10-22T10:11:29;4.68;;;1.40;;
75639;SDS011;64233;51.486;6.332;2022-10-22T10:17:07;2.85;;;0.98;;
75639;SDS011;64233;51.486;6.332;2022-10-22T10:27:46;7.28;;;1.13;;
75639;SDS011;64233;51.486;6.332;2022-10-22T10:30:21;3.75;;;1.33;;
75639;SDS011;64233;51.486;6.332;2022-10-22T10:35:24;5.15;;;1.17;;
75639;SDS011;64233;51.486;6.332;2022-10-22T10:38:02;3.65;;;1.10;;
75639;SDS011;64233;51.486;6.332;2022-10-22T10:46:06;7.68;;;1.52;;
75639;SDS011;64233;51.486;6.332;2022-10-22T10:56:29;6.70;;;1.38;;
75639;SDS011;64233;51.486;6.332;2022-10-22T11:02:01;1.98;;;0.73;;
75639;SDS011;64233;51.486;6.332;2022-10-22T11:04:33;8.27;;;1.20;;
75639;SDS011;64233;51.486;6.332;2022-10-22T11:07:18;5.72;;;1.20;;
75639;SDS011;64233;51.486;6.332;2022-10-22T11:09:59;2.00;;;1.00;;
75639;SDS011;64233;51.486;6.332;2022-10-22T11:12:43;2.35;;;1.20;;
75639;SDS011;64233;51.486;6.332;2022-10-22T11:18:07;2.85;;;1.60;;
75639;SDS011;64233;51.486;6.332;2022-10-22T11:23:50;4.47;;;1.85;;
75639;SDS011;64233;51.486;6.332;2022-10-22T11:26:23;8.35;;;1.20;;
75639;SDS011;64233;51.486;6.332;2022-10-22T11:28:56;3.80;;;0.98;;
75639;SDS011;64233;51.486;6.332;2022-10-22T11:31:25;2.28;;;0.95;;
75639;SDS011;64233;51.486;6.332;2022-10-22T11:33:56;5.55;;;1.10;;
75639;SDS011;64233;51.486;6.332;2022-10-22T11:36:28;10.65;;;1.95;;
75639;SDS011;64233;51.486;6.332;2022-10-22T11:38:55;4.15;;;1.40;;
75639;SDS011;64233;51.486;6.332;2022-10-22T11:41:24;7.03;;;1.10;;
75639;SDS011;64233;51.486;6.332;2022-10-22T11:46:39;4.00;;;1.27;;
75639;SDS011;64233;51.486;6.332;2022-10-22T11:51:40;7.80;;;1.08;;
75639;SDS011;64233;51.486;6.332;2022-10-22T11:54:28;7.07;;;1.45;;
75639;SDS011;64233;51.486;6.332;2022-10-22T11:57:15;5.40;;;1.40;;
75639;SDS011;64233;51.486;6.332;2022-10-22T11:59:57;6.13;;;0.82;;
75639;SDS011;64233;51.486;6.332;2022-10-22T12:04:53;4.32;;;1.77;;
75639;SDS011;64233;51.486;6.332;2022-10-22T12:07:48;5.35;;;0.98;;
75639;SDS011;64233;51.486;6.332;2022-10-22T12:10:19;3.10;;;0.90;;
75639;SDS011;64233;51.486;6.332;2022-10-22T12:13:04;7.28;;;1.08;;
75639;SDS011;64233;51.486;6.332;2022-10-22T12:15:45;4.28;;;1.10;;
75639;SDS011;64233;51.486;6.332;2022-10-22T12:18:13;6.00;;;1.63;;
75639;SDS011;64233;51.486;6.332;2022-10-22T12:20:39;2.40;;;1.77;;
75639;SDS011;64233;51.486;6.332;2022-10-22T12:23:05;2.95;;;1.10;;
75639;SDS011;64233;51.486;6.332;2022-10-22T12:25:33;2.35;;;0.80;;
75639;SDS011;64233;51.486;6.332;2022-10-22T12:28:00;4.78;;;1.70;;
75639;SDS011;64233;51.486;6.332;2022-10-22T12:30:27;4.70;;;1.35;;
75639;SDS011;64233;51.486;6.332;2022-10-22T12:32:58;3.85;;;0.98;;
75639;SDS011;64233;51.486;6.332;2022-10-22T12:35:30;3.60;;;1.25;;
75639;SDS011;64233;51.486;6.332;2022-10-22T12:37:59;16.35;;;2.15;;
75639;SDS011;64233;51.486;6.332;2022-10-22T12:42:56;4.32;;;0.80;;
75639;SDS011;64233;51.486;6.332;2022-10-22T12:45:26;5.95;;;1.67;;
75639;SDS011;64233;51.486;6.332;2022-10-22T12:48:00;3.35;;;1.02;;
75639;SDS011;64233;51.486;6.332;2022-10-22T12:50:32;2.08;;;0.80;;
75639;SDS011;64233;51.486;6.332;2022-10-22T12:53:04;10.80;;;1.43;;
75639;SDS011;64233;51.486;6.332;2022-10-22T12:55:39;8.93;;;1.38;;
75639;SDS011;64233;51.486;6.332;2022-10-22T12:58:06;4.20;;;1.30;;
75639;SDS011;64233;51.486;6.332;2022-10-22T13:00:32;7.32;;;1.85;;
75639;SDS011;64233;51.486;6.332;2022-10-22T13:03:00;32.67;;;10.73;;
75639;SDS011;64233;51.486;6.332;2022-10-22T13:05:32;22.85;;;9.43;;
75639;SDS011;64233;51.486;6.332;2022-10-22T13:10:38;6.78;;;2.55;;
75639;SDS011;64233;51.486;6.332;2022-10-22T13:13:06;18.75;;;4.03;;
75639;SDS011;64233;51.486;6.332;2022-10-22T13:15:51;7.10;;;1.80;;
75639;SDS011;64233;51.486;6.332;2022-10-22T13:18:18;6.38;;;1.48;;
75639;SDS011;64233;51.486;6.332;2022-10-22T13:20:49;2.38;;;0.68;;
75639;SDS011;64233;51.486;6.332;2022-10-22T13:23:16;2.65;;;0.85;;
75639;SDS011;64233;51.486;6.332;2022-10-22T13:25:43;7.40;;;0.93;;
75639;SDS011;64233;51.486;6.332;2022-10-22T13:28:21;2.47;;;0.90;;
75639;SDS011;64233;51.486;6.332;2022-10-22T13:30:58;3.25;;;1.33;;
75639;SDS011;64233;51.486;6.332;2022-10-22T13:33:40;9.70;;;1.17;;
75639;SDS011;64233;51.486;6.332;2022-10-22T13:36:08;2.92;;;0.95;;
75639;SDS011;64233;51.486;6.332;2022-10-22T13:38:38;31.23;;;4.68;;
75639;SDS011;64233;51.486;6.332;2022-10-22T13:41:03;7.38;;;1.88;;
75639;SDS011;64233;51.486;6.332;2022-10-22T13:46:08;9.55;;;2.05;;
75639;SDS011;64233;51.486;6.332;2022-10-22T13:48:34;3.63;;;0.85;;
75639;SDS011;64233;51.486;6.332;2022-10-22T13:51:03;16.10;;;1.30;;
75639;SDS011;64233;51.486;6.332;2022-10-22T13:53:31;2.72;;;0.75;;
75639;SDS011;64233;51.486;6.332;2022-10-22T13:55:57;5.40;;;1.33;;
75639;SDS011;64233;51.486;6.332;2022-10-22T13:58:23;4.63;;;1.05;;
75639;SDS011;64233;51.486;6.332;2022-10-22T14:00:50;10.20;;;1.77;;
75639;SDS011;64233;51.486;6.332;2022-10-22T14:03:19;4.28;;;0.90;;
75639;SDS011;64233;51.486;6.332;2022-10-22T14:05:47;5.13;;;0.90;;
75639;SDS011;64233;51.486;6.332;2022-10-22T14:08:17;3.33;;;1.20;;
75639;SDS011;64233;51.486;6.332;2022-10-22T14:10:44;6.38;;;1.00;;
75639;SDS011;64233;51.486;6.332;2022-10-22T14:13:11;7.30;;;0.93;;
75639;SDS011;64233;51.486;6.332;2022-10-22T14:15:37;8.35;;;1.17;;
75639;SDS011;64233;51.486;6.332;2022-10-22T14:18:04;3.47;;;0.73;;
75639;SDS011;64233;51.486;6.332;2022-10-22T14:20:32;5.82;;;1.30;;
75639;SDS011;64233;51.486;6.332;2022-10-22T14:23:22;2.53;;;1.45;;
75639;SDS011;64233;51.486;6.332;2022-10-22T14:25:47;11.52;;;4.93;;
75639;SDS011;64233;51.486;6.332;2022-10-22T14:28:14;10.48;;;1.13;;
75639;SDS011;64233;51.486;6.332;2022-10-22T14:30:40;2.58;;;0.95;;
75639;SDS011;64233;51.486;6.332;2022-10-22T14:33:16;4.30;;;0.80;;
75639;SDS011;64233;51.486;6.332;2022-10-22T14:35:44;3.92;;;1.58;;
75639;SDS011;64233;51.486;6.332;2022-10-22T14:38:11;3.65;;;0.85;;
75639;SDS011;64233;51.486;6.332;2022-10-22T14:40:37;6.55;;;1.65;;
75639;SDS011;64233;51.486;6.332;2022-10-22T14:43:04;5.57;;;1.52;;
75639;SDS011;64233;51.486;6.332;2022-10-22T14:45:30;2.13;;;0.80;;
75639;SDS011;64233;51.486;6.332;2022-10-22T14:47:55;2.33;;;0.82;;
75639;SDS011;64233;51.486;6.332;2022-10-22T14:50:21;4.90;;;0.82;;
75639;SDS011;64233;51.486;6.332;2022-10-22T14:52:48;2.85;;;1.10;;
75639;SDS011;64233;51.486;6.332;2022-10-22T14:55:15;5.90;;;1.30;;
75639;SDS011;64233;51.486;6.332;2022-10-22T14:57:41;35.35;;;2.60;;
75639;SDS011;64233;51.486;6.332;2022-10-22T15:00:09;4.50;;;0.90;;
75639;SDS011;64233;51.486;6.332;2022-10-22T15:02:39;3.90;;;1.02;;
75639;SDS011;64233;51.486;6.332;2022-10-22T15:05:05;3.00;;;1.20;;
75639;SDS011;64233;51.486;6.332;2022-10-22T15:07:30;4.47;;;1.00;;
75639;SDS011;64233;51.486;6.332;2022-10-22T15:09:56;3.00;;;1.05;;
75639;SDS011;64233;51.486;6.332;2022-10-22T15:12:22;3.50;;;1.10;;
75639;SDS011;64233;51.486;6.332;2022-10-22T15:14:47;1.90;;;0.80;;
75639;SDS011;64233;51.486;6.332;2022-10-22T15:17:13;7.93;;;1.40;;
75639;SDS011;64233;51.486;6.332;2022-10-22T15:19:39;3.55;;;1.02;;
75639;SDS011;64233;51.486;6.332;2022-10-22T15:22:04;4.97;;;1.20;;
75639;SDS011;64233;51.486;6.332;2022-10-22T15:24:31;1.52;;;0.90;;
75639;SDS011;64233;51.486;6.332;2022-10-22T15:26:57;5.18;;;1.17;;
75639;SDS011;64233;51.486;6.332;2022-10-22T15:29:22;3.60;;;1.20;;
75639;SDS011;64233;51.486;6.332;2022-10-22T15:31:49;7.05;;;2.55;;
75639;SDS011;64233;51.486;6.332;2022-10-22T15:34:20;6.05;;;0.80;;
75639;SDS011;64233;51.486;6.332;2022-10-22T15:36:48;5.80;;;1.10;;
75639;SDS011;64233;51.486;6.332;2022-10-22T15:39:13;2.60;;;0.88;;
75639;SDS011;64233;51.486;6.332;2022-10-22T15:41:39;4.85;;;1.05;;
75639;SDS011;64233;51.486;6.332;2022-10-22T15:44:04;6.82;;;1.77;;
75639;SDS011;64233;51.486;6.332;2022-10-22T15:46:30;2.70;;;0.70;;
75639;SDS011;64233;51.486;6.332;2022-10-22T15:48:56;2.28;;;1.00;;
75639;SDS011;64233;51.486;6.332;2022-10-22T15:51:22;6.18;;;1.10;;
75639;SDS011;64233;51.486;6.332;2022-10-22T15:53:52;1.60;;;1.00;;
75639;SDS011;64233;51.486;6.332;2022-10-22T15:56:18;4.03;;;0.98;;
75639;SDS011;64233;51.486;6.332;2022-10-22T15:58:44;2.03;;;0.80;;
75639;SDS011;64233;51.486;6.332;2022-10-22T16:01:12;3.00;;;1.00;;
75639;SDS011;64233;51.486;6.332;2022-10-22T16:03:38;2.40;;;0.88;;
75639;SDS011;64233;51.486;6.332;2022-10-22T16:06:05;18.30;;;7.38;;
75639;SDS011;64233;51.486;6.332;2022-10-22T16:08:32;2.58;;;1.13;;
75639;SDS011;64233;51.486;6.332;2022-10-22T16:10:57;2.60;;;0.90;;
75639;SDS011;64233;51.486;6.332;2022-10-22T16:13:23;3.92;;;1.20;;
75639;SDS011;64233;51.486;6.332;2022-10-22T16:15:50;3.45;;;1.13;;
75639;SDS011;64233;51.486;6.332;2022-10-22T16:18:16;2.08;;;0.90;;
75639;SDS011;64233;51.486;6.332;2022-10-22T16:20:42;4.70;;;1.13;;
75639;SDS011;64233;51.486;6.332;2022-10-22T16:23:08;4.13;;;1.20;;
75639;SDS011;64233;51.486;6.332;2022-10-22T16:25:37;4.53;;;1.30;;
75639;SDS011;64233;51.486;6.332;2022-10-22T16:28:03;3.85;;;1.10;;
75639;SDS011;64233;51.486;6.332;2022-10-22T16:30:28;3.72;;;1.60;;
75639;SDS011;64233;51.486;6.332;2022-10-22T16:32:57;6.65;;;1.20;;
75639;SDS011;64233;51.486;6.332;2022-10-22T16:35:22;2.97;;;2.10;;
75639;SDS011;64233;51.486;6.332;2022-10-22T16:37:48;9.00;;;4.85;;
75639;SDS011;64233;51.486;6.332;2022-10-22T16:40:13;10.75;;;5.18;;
75639;SDS011;64233;51.486;6.332;2022-10-22T16:42:39;8.50;;;4.78;;